createdAt,value
2022-11-14T00:01:12.944Z,31.60
2022-11-14T00:03:39.819Z,31.58
2022-11-14T00:06:07.808Z,30.33
2022-11-14T00:08:35.493Z,29.35
2022-11-14T00:11:02.651Z,31.15
2022-11-14T00:13:29.569Z,30.92
2022-11-14T00:15:56.722Z,31.58
2022-11-14T00:18:23.843Z,31.83
2022-11-14T00:20:52.881Z,31.67
2022-11-14T00:23:20.945Z,29.23
2022-11-14T00:25:48.318Z,30.48
2022-11-14T00:28:15.804Z,29.17
2022-11-14T00:30:48.248Z,29.65
2022-11-14T00:33:20.060Z,29.13
2022-11-14T00:35:55.298Z,28.98
2022-11-14T00:38:22.719Z,30.45
2022-11-14T00:40:49.700Z,31.70
2022-11-14T00:43:16.552Z,31.10
2022-11-14T00:45:45.937Z,31.50
2022-11-14T00:48:13.465Z,30.85
2022-11-14T00:50:40.611Z,30.70
2022-11-14T00:53:07.942Z,29.55
2022-11-14T00:55:34.844Z,30.80
2022-11-14T00:58:01.640Z,31.17
2022-11-14T01:00:28.588Z,30.23
2022-11-14T01:02:58.176Z,30.30
2022-11-14T01:05:25.862Z,31.40
2022-11-14T01:07:52.956Z,31.02
2022-11-14T01:10:20.912Z,30.17
2022-11-14T01:12:48.106Z,29.60
2022-11-14T01:15:14.985Z,28.92
2022-11-14T01:17:41.773Z,29.17
2022-11-14T01:20:09.155Z,29.00
2022-11-14T01:22:36.238Z,29.45
2022-11-14T01:25:03.530Z,27.95
2022-11-14T01:27:33.558Z,30.00
2022-11-14T01:30:00.553Z,28.63
2022-11-14T01:32:28.030Z,28.92
2022-11-14T01:34:54.839Z,27.85
2022-11-14T01:37:21.832Z,27.90
2022-11-14T01:39:48.646Z,27.52
2022-11-14T01:42:17.454Z,27.90
2022-11-14T01:44:52.617Z,26.92
2022-11-14T01:47:24.443Z,27.73
2022-11-14T01:49:58.289Z,27.85
2022-11-14T01:52:39.402Z,28.85
2022-11-14T01:55:09.166Z,26.52
2022-11-14T01:57:42.006Z,27.85
2022-11-14T02:00:12.594Z,27.77
2022-11-14T02:02:39.709Z,26.58
2022-11-14T02:05:11.593Z,29.17
2022-11-14T02:07:40.877Z,28.20
2022-11-14T02:10:19.725Z,28.52
2022-11-14T02:12:46.938Z,28.25
2022-11-14T02:15:15.098Z,27.85
2022-11-14T02:17:43.461Z,27.13
2022-11-14T02:20:10.839Z,27.02
2022-11-14T02:22:42.351Z,27.02
2022-11-14T02:25:11.049Z,25.80
2022-11-14T02:27:39.604Z,26.50
2022-11-14T02:30:11.337Z,27.02
2022-11-14T02:33:09.399Z,25.73
2022-11-14T02:35:25.066Z,24.45
2022-11-14T02:37:51.829Z,26.48
2022-11-14T02:40:18.744Z,27.58
2022-11-14T02:42:45.482Z,25.33
2022-11-14T02:45:12.859Z,26.50
2022-11-14T02:47:39.607Z,25.00
2022-11-14T02:50:06.679Z,26.90
2022-11-14T02:52:33.406Z,26.27
2022-11-14T02:55:00.167Z,25.70
2022-11-14T02:57:26.937Z,24.90
2022-11-14T02:59:53.777Z,25.27
2022-11-14T03:02:20.608Z,25.60
2022-11-14T03:04:47.328Z,23.83
2022-11-14T03:07:14.145Z,23.60
2022-11-14T03:09:40.925Z,22.40
2022-11-14T03:12:07.882Z,22.80
2022-11-14T03:14:34.637Z,23.27
2022-11-14T03:17:01.540Z,23.27
2022-11-14T03:19:28.312Z,23.83
2022-11-14T03:21:55.146Z,24.08
2022-11-14T03:24:21.906Z,22.95
2022-11-14T03:26:48.650Z,23.27
2022-11-14T03:29:15.482Z,22.55
2022-11-14T03:31:42.782Z,22.30
2022-11-14T03:34:10.590Z,23.05
2022-11-14T03:36:38.230Z,21.75
2022-11-14T03:39:05.606Z,21.55
2022-11-14T03:41:32.569Z,21.25
2022-11-14T03:43:59.328Z,22.65
2022-11-14T03:46:26.078Z,22.73
2022-11-14T03:48:52.861Z,22.27
2022-11-14T03:51:19.632Z,23.52
2022-11-14T03:53:46.404Z,23.88
2022-11-14T03:56:13.156Z,23.25
2022-11-14T03:58:39.907Z,24.77
2022-11-14T04:01:06.868Z,23.65
2022-11-14T04:03:33.626Z,24.92
2022-11-14T04:06:00.375Z,24.73
2022-11-14T04:08:27.363Z,22.95
2022-11-14T04:10:54.367Z,24.13
2022-11-14T04:13:21.100Z,22.80
2022-11-14T04:15:54.625Z,23.02
2022-11-14T04:18:21.673Z,25.20
2022-11-14T04:20:48.413Z,24.52
2022-11-14T04:23:15.233Z,23.70
2022-11-14T04:25:44.476Z,24.33
2022-11-14T04:28:11.990Z,23.90
2022-11-14T04:30:38.997Z,23.83
2022-11-14T04:33:05.963Z,22.60
2022-11-14T04:35:32.722Z,22.73
2022-11-14T04:37:59.478Z,23.67
2022-11-14T04:40:26.209Z,24.33
2022-11-14T04:42:52.942Z,24.00
2022-11-14T04:45:19.760Z,25.92
2022-11-14T04:47:46.534Z,24.02
2022-11-14T04:50:13.636Z,23.88
2022-11-14T04:52:40.373Z,24.70
2022-11-14T04:55:07.664Z,22.52
2022-11-14T04:57:34.470Z,24.17
2022-11-14T05:00:01.221Z,23.15
2022-11-14T05:02:32.254Z,23.35
2022-11-14T05:04:59.095Z,23.42
2022-11-14T05:07:25.922Z,23.25
2022-11-14T05:09:52.810Z,22.80
2022-11-14T05:12:19.589Z,25.20
2022-11-14T05:14:46.393Z,23.85
2022-11-14T05:17:13.129Z,24.02
2022-11-14T05:19:39.884Z,25.35
2022-11-14T05:22:06.647Z,25.00
2022-11-14T05:24:33.404Z,25.25
2022-11-14T05:27:00.182Z,23.52
2022-11-14T05:29:26.953Z,24.27
2022-11-14T05:31:53.767Z,24.67
2022-11-14T05:34:20.500Z,25.70
2022-11-14T05:36:47.249Z,25.15
2022-11-14T05:39:14.020Z,25.85
2022-11-14T05:41:40.807Z,25.50
2022-11-14T05:44:07.883Z,25.05
2022-11-14T05:46:34.692Z,25.30
2022-11-14T05:49:01.580Z,26.02
2022-11-14T05:51:28.463Z,24.60
2022-11-14T05:53:55.402Z,25.23
2022-11-14T05:56:22.123Z,26.58
2022-11-14T05:58:48.897Z,26.08
2022-11-14T06:01:18.823Z,25.80
2022-11-14T06:03:48.172Z,27.10
2022-11-14T06:06:19.607Z,26.30
2022-11-14T06:08:46.633Z,26.27
2022-11-14T06:11:19.716Z,25.98
2022-11-14T06:13:46.946Z,26.02
2022-11-14T06:16:17.103Z,26.70
2022-11-14T06:18:45.418Z,26.92
2022-11-14T06:21:18.628Z,26.95
2022-11-14T06:23:46.348Z,26.58
2022-11-14T06:26:32.149Z,26.33
2022-11-14T06:29:00.127Z,26.35
2022-11-14T06:31:27.594Z,25.23
2022-11-14T06:33:54.769Z,23.92
2022-11-14T06:36:21.517Z,23.83
2022-11-14T06:38:48.340Z,25.80
2022-11-14T06:41:18.833Z,57.63
2022-11-14T06:43:48.549Z,32.00
2022-11-14T06:46:19.121Z,29.33
2022-11-14T06:48:47.368Z,25.67
2022-11-14T06:51:15.817Z,28.95
2022-11-14T06:53:43.212Z,28.48
2022-11-14T06:56:13.990Z,27.27
2022-11-14T06:58:44.889Z,23.88
2022-11-14T07:01:23.353Z,23.27
2022-11-14T07:03:50.441Z,23.38
2022-11-14T07:06:22.118Z,23.95
2022-11-14T07:08:49.261Z,23.65
2022-11-14T07:11:26.563Z,24.27
2022-11-14T07:13:59.487Z,23.50
2022-11-14T07:16:35.258Z,22.63
2022-11-14T07:19:09.075Z,23.23
2022-11-14T07:21:36.330Z,23.50
2022-11-14T07:24:03.258Z,22.58
2022-11-14T07:26:30.059Z,22.58
2022-11-14T07:29:02.083Z,22.67
2022-11-14T07:31:29.760Z,22.55
2022-11-14T07:33:56.534Z,21.92
2022-11-14T07:36:23.690Z,21.08
2022-11-14T07:38:50.607Z,21.45
2022-11-14T07:41:18.590Z,25.35
2022-11-14T07:43:45.974Z,22.27
2022-11-14T07:46:16.542Z,22.35
2022-11-14T07:48:44.017Z,21.95
2022-11-14T07:51:16.748Z,21.40
2022-11-14T07:53:44.163Z,21.77
2022-11-14T07:56:11.125Z,22.08
2022-11-14T07:58:40.101Z,20.48
2022-11-14T08:01:10.176Z,21.98
2022-11-14T08:03:40.909Z,20.17
2022-11-14T08:06:14.325Z,21.05
2022-11-14T08:08:41.198Z,24.17
2022-11-14T08:11:08.260Z,21.92
2022-11-14T08:13:35.296Z,20.58
2022-11-14T08:16:13.305Z,19.77
2022-11-14T08:18:41.774Z,21.92
2022-11-14T08:21:08.651Z,18.80
2022-11-14T08:23:35.557Z,19.00
2022-11-14T08:26:02.338Z,18.25
2022-11-14T08:28:29.384Z,19.33
2022-11-14T08:31:03.741Z,18.77
2022-11-14T08:33:31.600Z,17.90
2022-11-14T08:36:03.658Z,17.95
2022-11-14T08:38:32.984Z,12.88
2022-11-14T08:41:04.364Z,19.38
2022-11-14T08:43:32.053Z,19.40
2022-11-14T08:46:04.324Z,18.73
2022-11-14T08:48:32.781Z,17.23
2022-11-14T08:51:05.919Z,18.13
2022-11-14T08:53:34.129Z,18.95
2022-11-14T08:56:00.923Z,18.42
2022-11-14T08:58:30.764Z,18.55
2022-11-14T09:01:07.011Z,19.35
2022-11-14T09:03:34.556Z,19.05
2022-11-14T09:06:02.339Z,19.73
2022-11-14T09:08:30.473Z,23.80
2022-11-14T09:11:05.358Z,22.75
2022-11-14T09:13:34.416Z,25.70
2022-11-14T09:16:01.389Z,22.08
2022-11-14T09:18:29.008Z,22.00
2022-11-14T09:21:01.973Z,21.10
2022-11-14T09:23:29.137Z,18.00
2022-11-14T09:25:57.373Z,16.67
2022-11-14T09:28:24.780Z,16.17
2022-11-14T09:30:51.575Z,17.95
2022-11-14T09:33:18.324Z,17.90
2022-11-14T09:35:45.052Z,17.85
2022-11-14T09:38:12.235Z,16.98
2022-11-14T09:40:47.825Z,16.70
2022-11-14T09:43:43.861Z,16.65
2022-11-14T09:46:17.691Z,18.52
2022-11-14T09:48:44.565Z,19.45
2022-11-14T09:51:31.271Z,19.83
2022-11-14T09:54:18.681Z,21.10
2022-11-14T09:56:45.467Z,18.40
2022-11-14T09:59:13.282Z,21.23
2022-11-14T10:02:22.813Z,17.08
2022-11-14T10:05:08.496Z,17.63
2022-11-14T10:08:20.936Z,16.48
2022-11-14T10:11:02.119Z,17.02
2022-11-14T10:13:57.551Z,16.05
2022-11-14T10:16:31.730Z,17.00
2022-11-14T10:19:36.387Z,15.88
2022-11-14T10:22:17.803Z,16.13
2022-11-14T10:25:17.514Z,15.15
2022-11-14T10:28:16.189Z,16.75
2022-11-14T10:31:21.658Z,16.25
2022-11-14T10:34:19.596Z,14.80
2022-11-14T10:37:17.444Z,15.55
2022-11-14T10:39:52.854Z,15.32
2022-11-14T10:42:37.507Z,16.90
2022-11-14T10:45:10.532Z,15.43
2022-11-14T10:50:25.444Z,15.65
2022-11-14T10:53:01.209Z,15.68
2022-11-14T10:55:57.260Z,16.05
2022-11-14T10:58:15.037Z,15.98
2022-11-14T11:00:41.886Z,16.65
2022-11-14T11:03:08.822Z,18.05
2022-11-14T11:05:51.352Z,17.60
2022-11-14T11:08:44.165Z,14.00
2022-11-14T11:11:32.271Z,17.15
2022-11-14T11:14:01.435Z,19.55
2022-11-14T11:16:29.732Z,21.85
2022-11-14T11:19:26.009Z,20.90
2022-11-14T11:21:53.328Z,21.92
2022-11-14T11:24:37.689Z,20.70
2022-11-14T11:27:14.325Z,20.80
2022-11-14T11:29:41.624Z,22.20
2022-11-14T11:32:09.313Z,18.48
2022-11-14T11:34:36.620Z,18.85
2022-11-14T11:37:18.170Z,18.98
2022-11-14T11:39:57.070Z,21.15
2022-11-14T11:43:31.859Z,20.90
2022-11-14T11:45:33.392Z,19.35
2022-11-14T11:48:19.939Z,21.40
2022-11-14T11:50:48.291Z,20.35
2022-11-14T11:53:24.436Z,20.33
2022-11-14T11:55:58.962Z,19.52
2022-11-14T11:58:41.060Z,18.83
2022-11-14T12:01:13.845Z,18.85
2022-11-14T12:03:48.523Z,19.38
2022-11-14T12:06:25.207Z,18.63
2022-11-14T12:09:02.800Z,19.52
2022-11-14T12:11:35.492Z,19.23
2022-11-14T12:15:06.794Z,20.33
2022-11-14T12:18:15.220Z,19.27
2022-11-14T12:20:48.355Z,20.42
2022-11-14T12:23:39.112Z,20.63
2022-11-14T12:26:11.718Z,19.55
2022-11-14T12:28:59.685Z,19.65
2022-11-14T12:31:33.132Z,20.63
2022-11-14T12:34:05.600Z,18.40
2022-11-14T12:36:34.755Z,19.77
2022-11-14T12:39:02.379Z,18.33
2022-11-14T12:41:33.481Z,20.15
2022-11-14T12:44:29.482Z,19.30
2022-11-14T12:47:05.745Z,19.05
2022-11-14T12:49:59.451Z,19.55
2022-11-14T12:52:43.743Z,20.30
2022-11-14T12:55:25.748Z,19.88
2022-11-14T12:58:49.432Z,19.77
2022-11-14T13:01:42.380Z,20.17
2022-11-14T13:04:39.974Z,17.50
2022-11-14T13:07:49.346Z,19.95
2022-11-14T13:10:37.883Z,19.02
2022-11-14T13:13:29.431Z,18.90
2022-11-14T13:16:17.288Z,18.98
2022-11-14T13:19:29.457Z,18.48
2022-11-14T13:22:11.345Z,18.35
2022-11-14T13:25:00.323Z,19.10
2022-11-14T13:27:52.676Z,18.98
2022-11-14T13:30:19.867Z,18.35
2022-11-14T13:32:46.541Z,18.67
2022-11-14T13:35:45.762Z,18.95
2022-11-14T13:38:50.636Z,17.70
2022-11-14T13:42:14.957Z,19.35
2022-11-14T13:45:42.015Z,18.63
2022-11-14T13:49:15.603Z,20.08
2022-11-14T13:51:44.585Z,18.37
2022-11-14T13:54:17.642Z,19.10
2022-11-14T13:57:17.410Z,19.85
2022-11-14T13:59:59.202Z,20.40
2022-11-14T14:02:57.899Z,20.23
2022-11-14T14:05:42.618Z,19.88
2022-11-14T14:08:30.172Z,21.35
2022-11-14T14:11:18.473Z,20.27
2022-11-14T14:13:52.493Z,20.27
2022-11-14T14:16:36.654Z,21.45
2022-11-14T14:19:29.438Z,20.38
2022-11-14T14:22:39.248Z,21.13
2022-11-14T14:25:19.713Z,20.13
2022-11-14T14:28:26.384Z,20.33
2022-11-14T14:31:10.562Z,21.23
2022-11-14T14:33:46.328Z,21.10
2022-11-14T14:36:31.858Z,21.13
2022-11-14T14:39:28.826Z,21.58
2022-11-14T14:41:58.447Z,21.25
2022-11-14T14:44:38.853Z,20.85
2022-11-14T14:47:38.256Z,19.88
2022-11-14T14:50:19.777Z,21.88
2022-11-14T14:52:46.864Z,22.13
2022-11-14T14:55:27.764Z,20.92
2022-11-14T14:57:54.685Z,21.70
2022-11-14T15:00:26.614Z,20.58
2022-11-14T15:02:57.309Z,22.02
2022-11-14T15:05:29.294Z,23.70
2022-11-14T15:07:59.632Z,23.65
2022-11-14T15:10:30.259Z,21.00
2022-11-14T15:13:00.246Z,20.75
2022-11-14T15:15:27.963Z,20.85
2022-11-14T15:17:58.517Z,27.48
2022-11-14T15:20:29.901Z,23.60
2022-11-14T15:23:14.689Z,22.85
2022-11-14T15:25:42.621Z,22.95
2022-11-14T15:28:17.526Z,35.13
2022-11-14T15:31:05.613Z,41.13
2022-11-14T15:33:34.813Z,28.73
2022-11-14T15:36:23.628Z,35.63
2022-11-14T15:39:23.893Z,29.02
2022-11-14T15:42:16.989Z,30.38
2022-11-14T15:44:43.961Z,29.25
2022-11-14T15:47:20.749Z,22.00
2022-11-14T15:50:23.302Z,20.98
2022-11-14T15:53:05.317Z,24.55
2022-11-14T15:55:32.172Z,21.65
2022-11-14T15:58:21.293Z,24.60
2022-11-14T16:00:52.502Z,27.10
2022-11-14T16:03:22.042Z,29.33
2022-11-14T16:05:48.824Z,24.00
2022-11-14T16:08:15.578Z,24.40
2022-11-14T16:10:42.363Z,23.30
2022-11-14T16:13:10.949Z,24.13
2022-11-14T16:15:37.939Z,23.65
2022-11-14T16:18:06.178Z,23.73
2022-11-14T16:20:37.998Z,25.23
2022-11-14T16:23:05.894Z,26.00
2022-11-14T16:25:32.928Z,24.63
2022-11-14T16:27:59.811Z,25.48
2022-11-14T16:30:26.846Z,24.33
2022-11-14T16:32:53.791Z,26.65
2022-11-14T16:35:26.731Z,28.23
2022-11-14T16:40:27.732Z,31.45
2022-11-14T16:42:57.053Z,29.30
2022-11-14T16:45:24.430Z,30.85
2022-11-14T16:47:51.464Z,29.67
2022-11-14T16:50:19.289Z,28.65
2022-11-14T16:52:46.080Z,27.90
2022-11-14T16:55:13.132Z,26.17
2022-11-14T16:57:40.713Z,26.13
2022-11-14T17:00:10.991Z,28.48
2022-11-14T17:02:40.380Z,28.73
2022-11-14T17:05:07.611Z,26.83
2022-11-14T17:07:34.394Z,26.05
2022-11-14T17:10:01.433Z,24.38
2022-11-14T17:12:28.869Z,25.27
2022-11-14T17:14:55.638Z,24.58
2022-11-14T17:17:22.379Z,25.15
2022-11-14T17:19:49.845Z,25.13
2022-11-14T17:22:18.396Z,23.00
2022-11-14T17:24:45.367Z,23.58
2022-11-14T17:27:12.967Z,26.08
2022-11-14T17:29:39.919Z,25.10
2022-11-14T17:32:06.909Z,25.73
2022-11-14T17:34:33.696Z,25.23
2022-11-14T17:37:00.440Z,25.85
2022-11-14T17:39:27.325Z,24.25
2022-11-14T17:41:54.088Z,26.42
2022-11-14T17:44:21.158Z,26.08
2022-11-14T17:46:48.347Z,26.17
2022-11-14T17:49:15.101Z,25.05
2022-11-14T17:51:41.860Z,25.40
2022-11-14T17:54:08.925Z,26.50
2022-11-14T17:56:35.727Z,25.77
2022-11-14T17:59:03.097Z,26.55
2022-11-14T18:01:31.306Z,28.10
2022-11-14T18:04:03.048Z,29.20
2022-11-14T18:06:33.916Z,32.20
2022-11-14T18:09:04.803Z,31.63
2022-11-14T18:11:31.893Z,33.70
2022-11-14T18:13:58.895Z,30.15
2022-11-14T18:16:31.357Z,31.92
2022-11-14T18:19:02.160Z,30.52
2022-11-14T18:21:29.346Z,34.28
2022-11-14T18:23:59.973Z,33.13
2022-11-14T18:26:28.811Z,30.25
2022-11-14T18:28:57.018Z,35.90
2022-11-14T18:31:24.633Z,33.38
2022-11-14T18:33:51.597Z,30.15
2022-11-14T18:36:18.818Z,29.35
2022-11-14T18:38:46.352Z,27.88
2022-11-14T18:41:18.987Z,29.17
2022-11-14T18:43:47.352Z,29.48
2022-11-14T18:46:19.265Z,30.13
2022-11-14T18:48:49.082Z,20.92
2022-11-14T18:51:22.225Z,29.00
2022-11-14T18:53:51.183Z,29.38
2022-11-14T18:56:21.188Z,29.45
2022-11-14T18:58:52.548Z,29.23
2022-11-14T19:01:26.380Z,29.52
2022-11-14T19:03:57.165Z,28.80
2022-11-14T19:06:24.378Z,31.27
2022-11-14T19:08:56.126Z,31.40
2022-11-14T19:11:41.310Z,36.85
2022-11-14T19:14:08.188Z,34.70
2022-11-14T19:16:36.737Z,32.90
2022-11-14T19:19:05.637Z,35.65
2022-11-14T19:21:32.866Z,39.47
2022-11-14T19:24:00.887Z,33.28
2022-11-14T19:26:29.071Z,33.17
2022-11-14T19:28:56.743Z,33.28
2022-11-14T19:31:24.042Z,36.88
2022-11-14T19:33:50.830Z,31.90
2022-11-14T19:36:45.281Z,33.88
2022-11-14T19:39:08.480Z,33.33
2022-11-14T19:41:35.335Z,31.55
2022-11-14T19:44:02.728Z,31.05
2022-11-14T19:46:29.844Z,29.02
2022-11-14T19:49:01.002Z,26.95
2022-11-14T19:51:29.218Z,27.80
2022-11-14T19:53:59.148Z,28.35
2022-11-14T19:56:26.050Z,28.95
2022-11-14T19:58:56.156Z,29.67
2022-11-14T20:01:26.461Z,28.52
2022-11-14T20:03:56.348Z,28.65
2022-11-14T20:06:34.160Z,26.55
2022-11-14T20:09:11.087Z,25.77
2022-11-14T20:11:38.404Z,28.65
2022-11-14T20:14:06.121Z,29.73
2022-11-14T20:16:36.146Z,31.52
2022-11-14T20:19:03.707Z,36.15
2022-11-14T20:21:33.884Z,39.55
2022-11-14T20:24:00.822Z,36.60
2022-11-14T20:26:27.784Z,33.38
2022-11-14T20:28:54.949Z,36.95
2022-11-14T20:31:25.475Z,32.85
2022-11-14T20:33:54.232Z,33.22
2022-11-14T20:36:24.578Z,36.67
2022-11-14T20:38:52.831Z,37.17
2022-11-14T20:41:20.706Z,36.08
2022-11-14T20:43:48.494Z,33.33
2022-11-14T20:46:21.564Z,52.55
2022-11-14T20:48:49.242Z,33.15
2022-11-14T20:51:24.602Z,31.00
2022-11-14T20:53:54.115Z,28.33
2022-11-14T20:56:22.149Z,29.50
2022-11-14T20:58:53.681Z,31.85
2022-11-14T21:01:21.458Z,27.15
2022-11-14T21:03:48.814Z,27.33
2022-11-14T21:06:16.879Z,29.13
2022-11-14T21:08:44.138Z,28.70
2022-11-14T21:11:18.057Z,27.48
2022-11-14T21:13:57.435Z,29.95
2022-11-14T21:16:34.440Z,33.75
2022-11-14T21:19:02.021Z,32.45
2022-11-14T21:21:33.163Z,30.65
2022-11-14T21:24:00.080Z,30.65
2022-11-14T21:26:33.335Z,32.53
2022-11-14T21:29:08.995Z,30.60
2022-11-14T21:31:46.015Z,36.78
2022-11-14T21:34:16.632Z,36.47
2022-11-14T21:36:45.438Z,34.78
2022-11-14T21:39:14.884Z,39.22
2022-11-14T21:41:42.818Z,40.33
2022-11-14T21:44:16.339Z,41.70
2022-11-14T21:46:46.110Z,40.00
2022-11-14T21:49:13.095Z,35.45
2022-11-14T21:51:39.885Z,34.03
2022-11-14T21:54:08.756Z,30.83
2022-11-14T21:56:37.101Z,29.67
2022-11-14T21:59:13.692Z,27.85
2022-11-14T22:02:04.854Z,27.25
2022-11-14T22:04:32.563Z,28.05
2022-11-14T22:07:05.290Z,27.95
2022-11-14T22:09:32.495Z,28.60
2022-11-14T22:11:59.970Z,27.50
2022-11-14T22:14:27.312Z,26.67
2022-11-14T22:16:54.305Z,26.25
2022-11-14T22:19:21.670Z,24.90
2022-11-14T22:21:48.772Z,28.05
2022-11-14T22:24:15.777Z,25.83
2022-11-14T22:26:42.775Z,26.30
2022-11-14T22:29:09.776Z,26.15
2022-11-14T22:31:38.227Z,27.63
2022-11-14T22:34:05.828Z,26.70
2022-11-14T22:36:33.552Z,27.98
2022-11-14T22:39:00.663Z,29.75
2022-11-14T22:41:33.741Z,27.33
2022-11-14T22:44:01.757Z,27.58
2022-11-14T22:46:29.234Z,26.17
2022-11-14T22:48:56.826Z,29.25
2022-11-14T22:51:28.386Z,27.48
2022-11-14T22:53:59.112Z,27.65
2022-11-14T22:56:29.241Z,28.00
2022-11-14T22:58:59.115Z,28.80
2022-11-14T23:01:32.594Z,28.42
2022-11-14T23:04:04.149Z,27.27
2022-11-14T23:06:34.286Z,28.20
2022-11-14T23:09:03.457Z,27.55
2022-11-14T23:11:32.359Z,28.13
2022-11-14T23:14:01.040Z,27.67
2022-11-14T23:16:33.682Z,28.63
2022-11-14T23:19:03.680Z,30.88
2022-11-14T23:21:36.582Z,34.47
2022-11-14T23:24:08.483Z,29.65
2022-11-14T23:26:35.365Z,27.83
2022-11-14T23:29:02.847Z,26.48
2022-11-14T23:31:29.729Z,28.80
2022-11-14T23:33:58.191Z,30.08
2022-11-14T23:36:25.173Z,30.05
2022-11-14T23:38:53.521Z,27.80
2022-11-14T23:41:27.588Z,29.52
2022-11-14T23:43:54.702Z,29.25
2022-11-14T23:46:21.577Z,29.83
2022-11-14T23:48:48.817Z,30.35
2022-11-14T23:51:15.705Z,28.23
2022-11-14T23:53:42.696Z,29.67
2022-11-14T23:56:13.418Z,28.95
2022-11-14T23:58:41.630Z,26.17
